sensor_id;sensor_type;location;lat;lon;timestamp;temperature;humidity
17483;DHT22;8858;52.308;20.994;2024-01-11T00:01:02;-5.00;99.90
17483;DHT22;8858;52.308;20.994;2024-01-11T00:03:30;-4.90;99.90
17483;DHT22;8858;52.308;20.994;2024-01-11T00:06:02;-4.90;99.90
17483;DHT22;8858;52.308;20.994;2024-01-11T00:08:31;-5.00;99.90
17483;DHT22;8858;52.308;20.994;2024-01-11T00:11:00;-5.00;99.90
17483;DHT22;8858;52.308;20.994;2024-01-11T00:13:29;-5.00;99.90
17483;DHT22;8858;52.308;20.994;2024-01-11T00:15:57;-5.00;99.90
17483;DHT22;8858;52.308;20.994;2024-01-11T00:18:30;-5.10;99.90
17483;DHT22;8858;52.308;20.994;2024-01-11T00:20:58;-5.10;99.90
17483;DHT22;8858;52.308;20.994;2024-01-11T00:23:28;-5.10;99.90
17483;DHT22;8858;52.308;20.994;2024-01-11T00:25:57;-5.10;99.90
17483;DHT22;8858;52.308;20.994;2024-01-11T00:28:26;-5.10;99.90
17483;DHT22;8858;52.308;20.994;2024-01-11T00:30:56;-5.10;99.90
17483;DHT22;8858;52.308;20.994;2024-01-11T00:33:27;-5.10;99.90
17483;DHT22;8858;52.308;20.994;2024-01-11T00:35:56;-5.10;99.90
17483;DHT22;8858;52.308;20.994;2024-01-11T00:38:25;-5.10;99.90
17483;DHT22;8858;52.308;20.994;2024-01-11T00:40:54;-5.10;99.90
17483;DHT22;8858;52.308;20.994;2024-01-11T00:43:24;-5.10;99.90
17483;DHT22;8858;52.308;20.994;2024-01-11T00:45:56;-5.10;99.90
17483;DHT22;8858;52.308;20.994;2024-01-11T00:48:24;-5.00;99.90
17483;DHT22;8858;52.308;20.994;2024-01-11T00:50:54;-5.00;99.90
17483;DHT22;8858;52.308;20.994;2024-01-11T00:53:22;-5.00;99.90
17483;DHT22;8858;52.308;20.994;2024-01-11T00:55:55;-5.00;99.90
17483;DHT22;8858;52.308;20.994;2024-01-11T00:58:23;-5.00;99.90
17483;DHT22;8858;52.308;20.994;2024-01-11T01:00:52;-4.90;99.90
17483;DHT22;8858;52.308;20.994;2024-01-11T01:03:21;-4.90;99.90
17483;DHT22;8858;52.308;20.994;2024-01-11T01:05:50;-5.00;99.90
17483;DHT22;8858;52.308;20.994;2024-01-11T01:08:22;-5.00;99.90
17483;DHT22;8858;52.308;20.994;2024-01-11T01:10:50;-4.90;99.90
17483;DHT22;8858;52.308;20.994;2024-01-11T01:13:20;-4.90;99.90
17483;DHT22;8858;52.308;20.994;2024-01-11T01:15:49;-4.90;99.90
17483;DHT22;8858;52.308;20.994;2024-01-11T01:18:22;-4.90;99.90
17483;DHT22;8858;52.308;20.994;2024-01-11T01:20:50;-4.90;99.90
17483;DHT22;8858;52.308;20.994;2024-01-11T01:23:19;-4.80;99.90
17483;DHT22;8858;52.308;20.994;2024-01-11T01:25:48;-4.90;99.90
17483;DHT22;8858;52.308;20.994;2024-01-11T01:28:17;-4.90;99.90
17483;DHT22;8858;52.308;20.994;2024-01-11T01:30:47;-4.90;99.90
17483;DHT22;8858;52.308;20.994;2024-01-11T01:33:16;-4.90;99.90
17483;DHT22;8858;52.308;20.994;2024-01-11T01:35:45;-4.90;99.90
17483;DHT22;8858;52.308;20.994;2024-01-11T01:38:14;-4.90;99.90
17483;DHT22;8858;52.308;20.994;2024-01-11T01:40:42;-5.00;99.90
17483;DHT22;8858;52.308;20.994;2024-01-11T01:43:11;-5.00;99.90
17483;DHT22;8858;52.308;20.994;2024-01-11T01:45:44;-5.00;99.90
17483;DHT22;8858;52.308;20.994;2024-01-11T01:48:15;-5.00;99.90
17483;DHT22;8858;52.308;20.994;2024-01-11T01:50:44;-5.00;99.90
17483;DHT22;8858;52.308;20.994;2024-01-11T01:53:18;-5.00;99.90
17483;DHT22;8858;52.308;20.994;2024-01-11T01:55:48;-5.00;99.90
17483;DHT22;8858;52.308;20.994;2024-01-11T01:58:17;-5.00;99.90
17483;DHT22;8858;52.308;20.994;2024-01-11T02:00:49;-5.00;99.90
17483;DHT22;8858;52.308;20.994;2024-01-11T02:03:21;-5.00;99.90
17483;DHT22;8858;52.308;20.994;2024-01-11T02:05:56;-5.10;99.90
17483;DHT22;8858;52.308;20.994;2024-01-11T02:08:33;-5.00;99.90
17483;DHT22;8858;52.308;20.994;2024-01-11T02:11:07;-5.00;99.90
17483;DHT22;8858;52.308;20.994;2024-01-11T02:13:39;-5.00;99.90
17483;DHT22;8858;52.308;20.994;2024-01-11T02:16:07;-5.00;99.90
17483;DHT22;8858;52.308;20.994;2024-01-11T02:18:37;-5.00;99.90
17483;DHT22;8858;52.308;20.994;2024-01-11T02:21:09;-5.00;99.90
17483;DHT22;8858;52.308;20.994;2024-01-11T02:23:44;-5.00;99.90
17483;DHT22;8858;52.308;20.994;2024-01-11T02:26:19;-5.00;99.90
17483;DHT22;8858;52.308;20.994;2024-01-11T02:28:49;-5.00;99.90
17483;DHT22;8858;52.308;20.994;2024-01-11T02:31:17;-5.00;99.90
17483;DHT22;8858;52.308;20.994;2024-01-11T02:33:47;-5.00;99.90
17483;DHT22;8858;52.308;20.994;2024-01-11T02:36:17;-5.10;99.90
17483;DHT22;8858;52.308;20.994;2024-01-11T02:38:46;-5.00;99.90
17483;DHT22;8858;52.308;20.994;2024-01-11T02:41:16;-5.00;99.90
17483;DHT22;8858;52.308;20.994;2024-01-11T02:43:48;-5.00;99.90
17483;DHT22;8858;52.308;20.994;2024-01-11T02:46:17;-5.00;99.90
17483;DHT22;8858;52.308;20.994;2024-01-11T02:48:46;-5.00;99.90
17483;DHT22;8858;52.308;20.994;2024-01-11T02:51:15;-5.00;99.90
17483;DHT22;8858;52.308;20.994;2024-01-11T02:53:44;-5.00;99.90
17483;DHT22;8858;52.308;20.994;2024-01-11T02:56:12;-4.90;99.90
17483;DHT22;8858;52.308;20.994;2024-01-11T02:58:41;-4.90;99.90
17483;DHT22;8858;52.308;20.994;2024-01-11T03:01:10;-4.90;99.90
17483;DHT22;8858;52.308;20.994;2024-01-11T03:03:42;-4.90;99.90
17483;DHT22;8858;52.308;20.994;2024-01-11T03:06:13;-4.80;99.90
17483;DHT22;8858;52.308;20.994;2024-01-11T03:08:43;-4.80;99.90
17483;DHT22;8858;52.308;20.994;2024-01-11T03:11:11;-4.80;99.90
17483;DHT22;8858;52.308;20.994;2024-01-11T03:13:39;-4.80;99.90
17483;DHT22;8858;52.308;20.994;2024-01-11T03:16:13;-4.80;99.90
17483;DHT22;8858;52.308;20.994;2024-01-11T03:18:42;-4.80;99.90
17483;DHT22;8858;52.308;20.994;2024-01-11T03:21:11;-4.70;99.90
17483;DHT22;8858;52.308;20.994;2024-01-11T03:23:39;-4.70;99.90
17483;DHT22;8858;52.308;20.994;2024-01-11T03:26:13;-4.70;99.90
17483;DHT22;8858;52.308;20.994;2024-01-11T03:28:42;-4.70;99.90
17483;DHT22;8858;52.308;20.994;2024-01-11T03:31:10;-4.70;99.90
17483;DHT22;8858;52.308;20.994;2024-01-11T03:33:41;-4.70;99.90
17483;DHT22;8858;52.308;20.994;2024-01-11T03:36:10;-4.70;99.90
17483;DHT22;8858;52.308;20.994;2024-01-11T03:38:39;-4.70;99.90
17483;DHT22;8858;52.308;20.994;2024-01-11T03:41:11;-4.60;99.90
17483;DHT22;8858;52.308;20.994;2024-01-11T03:43:39;-4.60;99.90
17483;DHT22;8858;52.308;20.994;2024-01-11T03:46:07;-4.70;99.90
17483;DHT22;8858;52.308;20.994;2024-01-11T03:48:36;-4.60;99.90
17483;DHT22;8858;52.308;20.994;2024-01-11T03:51:06;-4.60;99.90
17483;DHT22;8858;52.308;20.994;2024-01-11T03:53:35;-4.60;99.90
17483;DHT22;8858;52.308;20.994;2024-01-11T03:56:06;-4.60;99.90
17483;DHT22;8858;52.308;20.994;2024-01-11T03:58:35;-4.60;99.90
17483;DHT22;8858;52.308;20.994;2024-01-11T04:01:06;-4.60;99.90
17483;DHT22;8858;52.308;20.994;2024-01-11T04:03:37;-4.60;99.90
17483;DHT22;8858;52.308;20.994;2024-01-11T04:06:07;-4.60;99.90
17483;DHT22;8858;52.308;20.994;2024-01-11T04:08:36;-4.60;99.90
17483;DHT22;8858;52.308;20.994;2024-01-11T04:11:04;-4.60;99.90
17483;DHT22;8858;52.308;20.994;2024-01-11T04:13:34;-4.60;99.90
17483;DHT22;8858;52.308;20.994;2024-01-11T04:16:04;-4.50;99.90
17483;DHT22;8858;52.308;20.994;2024-01-11T04:18:33;-4.50;99.90
17483;DHT22;8858;52.308;20.994;2024-01-11T04:21:02;-4.60;99.90
17483;DHT22;8858;52.308;20.994;2024-01-11T04:23:33;-4.60;99.90
17483;DHT22;8858;52.308;20.994;2024-01-11T04:26:02;-4.60;99.90
17483;DHT22;8858;52.308;20.994;2024-01-11T04:28:31;-4.70;99.90
17483;DHT22;8858;52.308;20.994;2024-01-11T04:30:59;-4.70;99.90
17483;DHT22;8858;52.308;20.994;2024-01-11T04:33:30;-4.70;99.90
17483;DHT22;8858;52.308;20.994;2024-01-11T04:35:58;-4.70;99.90
17483;DHT22;8858;52.308;20.994;2024-01-11T04:38:26;-4.70;99.90
17483;DHT22;8858;52.308;20.994;2024-01-11T04:40:56;-4.60;99.90
17483;DHT22;8858;52.308;20.994;2024-01-11T04:43:27;-4.70;99.90
17483;DHT22;8858;52.308;20.994;2024-01-11T04:45:57;-4.60;99.90
17483;DHT22;8858;52.308;20.994;2024-01-11T04:48:25;-4.60;99.90
17483;DHT22;8858;52.308;20.994;2024-01-11T04:50:55;-4.70;99.90
17483;DHT22;8858;52.308;20.994;2024-01-11T04:53:24;-4.60;99.90
17483;DHT22;8858;52.308;20.994;2024-01-11T04:55:56;-4.70;99.90
17483;DHT22;8858;52.308;20.994;2024-01-11T04:58:27;-4.70;99.90
17483;DHT22;8858;52.308;20.994;2024-01-11T05:00:55;-4.70;99.90
17483;DHT22;8858;52.308;20.994;2024-01-11T05:03:23;-4.70;99.90
17483;DHT22;8858;52.308;20.994;2024-01-11T05:05:52;-4.60;99.90
17483;DHT22;8858;52.308;20.994;2024-01-11T05:08:22;-4.60;99.90
17483;DHT22;8858;52.308;20.994;2024-01-11T05:10:51;-4.60;99.90
17483;DHT22;8858;52.308;20.994;2024-01-11T05:13:21;-4.60;99.90
17483;DHT22;8858;52.308;20.994;2024-01-11T05:15:49;-4.70;99.90
17483;DHT22;8858;52.308;20.994;2024-01-11T05:18:18;-4.60;99.90
17483;DHT22;8858;52.308;20.994;2024-01-11T05:20:51;-4.60;99.90
17483;DHT22;8858;52.308;20.994;2024-01-11T05:23:23;-4.70;99.90
17483;DHT22;8858;52.308;20.994;2024-01-11T05:25:52;-4.70;99.90
17483;DHT22;8858;52.308;20.994;2024-01-11T05:28:21;-4.70;99.90
17483;DHT22;8858;52.308;20.994;2024-01-11T05:30:52;-4.60;99.90
17483;DHT22;8858;52.308;20.994;2024-01-11T05:33:22;-4.70;99.90
17483;DHT22;8858;52.308;20.994;2024-01-11T05:35:51;-4.60;99.90
17483;DHT22;8858;52.308;20.994;2024-01-11T05:38:20;-4.60;99.90
17483;DHT22;8858;52.308;20.994;2024-01-11T05:40:49;-4.60;99.90
17483;DHT22;8858;52.308;20.994;2024-01-11T05:43:18;-4.60;99.90
17483;DHT22;8858;52.308;20.994;2024-01-11T05:45:48;-4.60;99.90
17483;DHT22;8858;52.308;20.994;2024-01-11T05:48:20;-4.60;99.90
17483;DHT22;8858;52.308;20.994;2024-01-11T05:50:50;-4.60;99.90
17483;DHT22;8858;52.308;20.994;2024-01-11T05:53:18;-4.50;99.90
17483;DHT22;8858;52.308;20.994;2024-01-11T05:55:48;-4.60;99.90
17483;DHT22;8858;52.308;20.994;2024-01-11T05:58:19;-4.60;99.90
17483;DHT22;8858;52.308;20.994;2024-01-11T06:00:49;-4.50;99.90
17483;DHT22;8858;52.308;20.994;2024-01-11T06:03:18;-4.50;99.90
17483;DHT22;8858;52.308;20.994;2024-01-11T06:05:46;-4.50;99.90
17483;DHT22;8858;52.308;20.994;2024-01-11T06:08:15;-4.50;99.90
17483;DHT22;8858;52.308;20.994;2024-01-11T06:10:45;-4.50;99.90
17483;DHT22;8858;52.308;20.994;2024-01-11T06:13:17;-4.40;99.90
17483;DHT22;8858;52.308;20.994;2024-01-11T06:15:45;-4.40;99.90
17483;DHT22;8858;52.308;20.994;2024-01-11T06:18:16;-4.40;99.90
17483;DHT22;8858;52.308;20.994;2024-01-11T06:20:45;-4.40;99.90
17483;DHT22;8858;52.308;20.994;2024-01-11T06:23:14;-4.40;99.90
17483;DHT22;8858;52.308;20.994;2024-01-11T06:25:45;-4.30;99.90
17483;DHT22;8858;52.308;20.994;2024-01-11T06:28:18;-4.30;99.90
17483;DHT22;8858;52.308;20.994;2024-01-11T06:30:47;-4.30;99.90
17483;DHT22;8858;52.308;20.994;2024-01-11T06:33:17;-4.40;99.90
17483;DHT22;8858;52.308;20.994;2024-01-11T06:35:47;-4.30;99.90
17483;DHT22;8858;52.308;20.994;2024-01-11T06:38:16;-4.40;99.90
17483;DHT22;8858;52.308;20.994;2024-01-11T06:40:44;-4.30;99.90
17483;DHT22;8858;52.308;20.994;2024-01-11T06:43:13;-4.30;99.90
17483;DHT22;8858;52.308;20.994;2024-01-11T06:45:42;-4.30;99.90
17483;DHT22;8858;52.308;20.994;2024-01-11T06:48:11;-4.30;99.90
17483;DHT22;8858;52.308;20.994;2024-01-11T06:50:41;-4.30;99.90
17483;DHT22;8858;52.308;20.994;2024-01-11T06:53:09;-4.30;99.90
17483;DHT22;8858;52.308;20.994;2024-01-11T06:55:39;-4.30;99.90
17483;DHT22;8858;52.308;20.994;2024-01-11T06:58:08;-4.30;99.90
17483;DHT22;8858;52.308;20.994;2024-01-11T07:00:37;-4.30;99.90
17483;DHT22;8858;52.308;20.994;2024-01-11T07:03:10;-4.20;99.90
17483;DHT22;8858;52.308;20.994;2024-01-11T07:05:44;-4.20;99.90
17483;DHT22;8858;52.308;20.994;2024-01-11T07:08:13;-4.20;99.90
17483;DHT22;8858;52.308;20.994;2024-01-11T07:10:41;-4.20;99.90
17483;DHT22;8858;52.308;20.994;2024-01-11T07:13:09;-4.20;99.90
17483;DHT22;8858;52.308;20.994;2024-01-11T07:15:39;-4.20;99.90
17483;DHT22;8858;52.308;20.994;2024-01-11T07:18:07;-4.20;99.90
17483;DHT22;8858;52.308;20.994;2024-01-11T07:20:36;-4.20;99.90
17483;DHT22;8858;52.308;20.994;2024-01-11T07:23:06;-4.10;99.90
17483;DHT22;8858;52.308;20.994;2024-01-11T07:25:35;-4.10;99.90
17483;DHT22;8858;52.308;20.994;2024-01-11T07:28:05;-4.10;99.90
17483;DHT22;8858;52.308;20.994;2024-01-11T07:30:33;-4.10;99.90
17483;DHT22;8858;52.308;20.994;2024-01-11T07:33:01;-4.10;99.90
17483;DHT22;8858;52.308;20.994;2024-01-11T07:35:33;-4.00;99.90
17483;DHT22;8858;52.308;20.994;2024-01-11T07:38:01;-4.00;99.90
17483;DHT22;8858;52.308;20.994;2024-01-11T07:40:31;-3.90;99.90
17483;DHT22;8858;52.308;20.994;2024-01-11T07:43:02;-3.90;99.90
17483;DHT22;8858;52.308;20.994;2024-01-11T07:45:31;-3.90;99.90
17483;DHT22;8858;52.308;20.994;2024-01-11T07:48:00;-3.90;99.90
17483;DHT22;8858;52.308;20.994;2024-01-11T07:50:30;-3.80;99.90
17483;DHT22;8858;52.308;20.994;2024-01-11T07:52:59;-3.80;99.90
17483;DHT22;8858;52.308;20.994;2024-01-11T07:55:28;-3.80;99.90
17483;DHT22;8858;52.308;20.994;2024-01-11T07:57:57;-3.70;99.90
17483;DHT22;8858;52.308;20.994;2024-01-11T08:00:26;-3.70;99.90
17483;DHT22;8858;52.308;20.994;2024-01-11T08:02:55;-3.70;99.90
17483;DHT22;8858;52.308;20.994;2024-01-11T08:05:23;-3.70;99.90
17483;DHT22;8858;52.308;20.994;2024-01-11T08:07:52;-3.70;99.90
17483;DHT22;8858;52.308;20.994;2024-01-11T08:10:20;-3.60;99.90
17483;DHT22;8858;52.308;20.994;2024-01-11T08:12:48;-3.60;99.90
17483;DHT22;8858;52.308;20.994;2024-01-11T08:15:19;-3.60;99.90
17483;DHT22;8858;52.308;20.994;2024-01-11T08:17:47;-3.50;99.90
17483;DHT22;8858;52.308;20.994;2024-01-11T08:20:15;-3.50;99.90
17483;DHT22;8858;52.308;20.994;2024-01-11T08:22:44;-3.50;99.90
17483;DHT22;8858;52.308;20.994;2024-01-11T08:25:16;-3.50;99.90
17483;DHT22;8858;52.308;20.994;2024-01-11T08:27:44;-3.40;99.90
17483;DHT22;8858;52.308;20.994;2024-01-11T08:30:12;-3.50;99.90
17483;DHT22;8858;52.308;20.994;2024-01-11T08:32:42;-3.40;99.90
17483;DHT22;8858;52.308;20.994;2024-01-11T08:35:11;-3.40;99.90
17483;DHT22;8858;52.308;20.994;2024-01-11T08:37:40;-3.40;99.90
17483;DHT22;8858;52.308;20.994;2024-01-11T08:40:09;-3.30;99.90
17483;DHT22;8858;52.308;20.994;2024-01-11T08:42:39;-3.30;99.90
17483;DHT22;8858;52.308;20.994;2024-01-11T08:45:09;-3.30;99.90
17483;DHT22;8858;52.308;20.994;2024-01-11T08:47:39;-3.20;99.90
17483;DHT22;8858;52.308;20.994;2024-01-11T08:50:12;-3.20;99.90
17483;DHT22;8858;52.308;20.994;2024-01-11T08:52:41;-3.20;99.90
17483;DHT22;8858;52.308;20.994;2024-01-11T08:55:09;-3.10;99.90
17483;DHT22;8858;52.308;20.994;2024-01-11T08:57:39;-3.10;99.90
17483;DHT22;8858;52.308;20.994;2024-01-11T09:00:09;-3.10;99.90
17483;DHT22;8858;52.308;20.994;2024-01-11T09:02:41;-3.00;99.90
17483;DHT22;8858;52.308;20.994;2024-01-11T09:05:11;-3.00;99.90
17483;DHT22;8858;52.308;20.994;2024-01-11T09:07:40;-3.00;99.90
17483;DHT22;8858;52.308;20.994;2024-01-11T09:10:09;-2.90;99.90
17483;DHT22;8858;52.308;20.994;2024-01-11T09:12:43;-2.90;99.90
17483;DHT22;8858;52.308;20.994;2024-01-11T09:15:15;-2.90;99.90
17483;DHT22;8858;52.308;20.994;2024-01-11T09:17:44;-2.80;99.90
17483;DHT22;8858;52.308;20.994;2024-01-11T09:20:15;-2.80;99.90
17483;DHT22;8858;52.308;20.994;2024-01-11T09:22:50;-2.80;99.90
17483;DHT22;8858;52.308;20.994;2024-01-11T09:25:19;-2.80;99.90
17483;DHT22;8858;52.308;20.994;2024-01-11T09:27:48;-2.80;99.90
17483;DHT22;8858;52.308;20.994;2024-01-11T09:30:17;-2.70;99.90
17483;DHT22;8858;52.308;20.994;2024-01-11T09:32:46;-2.70;99.90
17483;DHT22;8858;52.308;20.994;2024-01-11T09:35:19;-2.70;99.90
17483;DHT22;8858;52.308;20.994;2024-01-11T09:37:48;-2.60;99.90
17483;DHT22;8858;52.308;20.994;2024-01-11T09:40:17;-2.60;99.90
17483;DHT22;8858;52.308;20.994;2024-01-11T09:42:45;-2.60;99.90
17483;DHT22;8858;52.308;20.994;2024-01-11T09:45:16;-2.50;99.90
17483;DHT22;8858;52.308;20.994;2024-01-11T09:47:46;-2.50;99.90
17483;DHT22;8858;52.308;20.994;2024-01-11T09:50:16;-2.40;99.90
17483;DHT22;8858;52.308;20.994;2024-01-11T09:52:49;-2.40;99.90
17483;DHT22;8858;52.308;20.994;2024-01-11T09:55:18;-2.40;99.90
17483;DHT22;8858;52.308;20.994;2024-01-11T09:57:47;-2.30;99.90
17483;DHT22;8858;52.308;20.994;2024-01-11T10:00:18;-2.30;99.90
17483;DHT22;8858;52.308;20.994;2024-01-11T10:02:50;-2.20;99.90
17483;DHT22;8858;52.308;20.994;2024-01-11T10:05:19;-2.20;99.90
17483;DHT22;8858;52.308;20.994;2024-01-11T10:07:49;-2.20;99.90
17483;DHT22;8858;52.308;20.994;2024-01-11T10:10:18;-2.10;99.90
17483;DHT22;8858;52.308;20.994;2024-01-11T10:12:52;-2.10;99.90
17483;DHT22;8858;52.308;20.994;2024-01-11T10:15:24;-2.10;99.90
17483;DHT22;8858;52.308;20.994;2024-01-11T10:17:53;-2.00;99.90
17483;DHT22;8858;52.308;20.994;2024-01-11T10:20:28;-2.00;99.90
17483;DHT22;8858;52.308;20.994;2024-01-11T10:23:02;-1.90;99.90
17483;DHT22;8858;52.308;20.994;2024-01-11T10:25:33;-1.90;99.90
17483;DHT22;8858;52.308;20.994;2024-01-11T10:28:07;-1.90;99.90
17483;DHT22;8858;52.308;20.994;2024-01-11T10:30:36;-1.90;99.90
17483;DHT22;8858;52.308;20.994;2024-01-11T10:33:07;-1.90;99.90
17483;DHT22;8858;52.308;20.994;2024-01-11T10:35:36;-1.90;99.90
17483;DHT22;8858;52.308;20.994;2024-01-11T10:38:09;-1.80;99.90
17483;DHT22;8858;52.308;20.994;2024-01-11T10:40:39;-1.80;99.90
17483;DHT22;8858;52.308;20.994;2024-01-11T10:43:11;-1.80;99.90
17483;DHT22;8858;52.308;20.994;2024-01-11T10:45:44;-1.70;99.90
17483;DHT22;8858;52.308;20.994;2024-01-11T10:48:17;-1.70;99.90
17483;DHT22;8858;52.308;20.994;2024-01-11T10:50:46;-1.70;99.90
17483;DHT22;8858;52.308;20.994;2024-01-11T10:53:28;-1.70;99.90
17483;DHT22;8858;52.308;20.994;2024-01-11T10:56:01;-1.70;99.90
17483;DHT22;8858;52.308;20.994;2024-01-11T10:58:35;-1.60;99.90
17483;DHT22;8858;52.308;20.994;2024-01-11T11:01:04;-1.70;99.90
17483;DHT22;8858;52.308;20.994;2024-01-11T11:03:34;-1.60;99.90
17483;DHT22;8858;52.308;20.994;2024-01-11T11:06:05;-1.60;99.90
17483;DHT22;8858;52.308;20.994;2024-01-11T11:08:36;-1.60;99.90
17483;DHT22;8858;52.308;20.994;2024-01-11T11:11:04;-1.50;99.90
17483;DHT22;8858;52.308;20.994;2024-01-11T11:13:34;-1.50;99.90
17483;DHT22;8858;52.308;20.994;2024-01-11T11:16:03;-1.60;99.90
17483;DHT22;8858;52.308;20.994;2024-01-11T11:18:32;-1.50;99.90
17483;DHT22;8858;52.308;20.994;2024-01-11T11:21:08;-1.50;99.90
17483;DHT22;8858;52.308;20.994;2024-01-11T11:23:38;-1.50;99.90
17483;DHT22;8858;52.308;20.994;2024-01-11T11:26:14;-1.50;99.90
17483;DHT22;8858;52.308;20.994;2024-01-11T11:28:44;-1.50;99.90
17483;DHT22;8858;52.308;20.994;2024-01-11T11:31:34;-1.50;99.90
17483;DHT22;8858;52.308;20.994;2024-01-11T11:34:04;-1.40;99.90
17483;DHT22;8858;52.308;20.994;2024-01-11T11:36:34;-1.40;99.90
17483;DHT22;8858;52.308;20.994;2024-01-11T11:39:04;-1.40;99.90
17483;DHT22;8858;52.308;20.994;2024-01-11T11:41:35;-1.40;99.90
17483;DHT22;8858;52.308;20.994;2024-01-11T11:44:06;-1.40;99.90
17483;DHT22;8858;52.308;20.994;2024-01-11T11:46:35;-1.30;99.90
17483;DHT22;8858;52.308;20.994;2024-01-11T11:49:04;-1.30;99.90
17483;DHT22;8858;52.308;20.994;2024-01-11T11:51:33;-1.30;99.90
17483;DHT22;8858;52.308;20.994;2024-01-11T11:54:05;-1.30;99.90
17483;DHT22;8858;52.308;20.994;2024-01-11T11:56:39;-1.30;99.90
17483;DHT22;8858;52.308;20.994;2024-01-11T11:59:08;-1.30;99.90
17483;DHT22;8858;52.308;20.994;2024-01-11T12:01:38;-1.20;99.90
17483;DHT22;8858;52.308;20.994;2024-01-11T12:04:08;-1.20;99.90
17483;DHT22;8858;52.308;20.994;2024-01-11T12:06:37;-1.20;99.90
17483;DHT22;8858;52.308;20.994;2024-01-11T12:09:07;-1.20;99.90
17483;DHT22;8858;52.308;20.994;2024-01-11T12:11:41;-1.20;99.90
17483;DHT22;8858;52.308;20.994;2024-01-11T12:14:15;-1.10;99.90
17483;DHT22;8858;52.308;20.994;2024-01-11T12:16:43;-1.10;99.90
17483;DHT22;8858;52.308;20.994;2024-01-11T12:19:17;-1.10;99.90
17483;DHT22;8858;52.308;20.994;2024-01-11T12:21:50;-1.00;99.90
17483;DHT22;8858;52.308;20.994;2024-01-11T12:24:22;-1.00;99.90
17483;DHT22;8858;52.308;20.994;2024-01-11T12:26:51;-1.10;99.90
17483;DHT22;8858;52.308;20.994;2024-01-11T12:29:23;-1.10;99.90
17483;DHT22;8858;52.308;20.994;2024-01-11T12:31:52;-1.10;99.90
17483;DHT22;8858;52.308;20.994;2024-01-11T12:34:21;-1.00;99.90
17483;DHT22;8858;52.308;20.994;2024-01-11T12:36:51;-1.00;99.90
17483;DHT22;8858;52.308;20.994;2024-01-11T12:39:26;-1.00;99.90
17483;DHT22;8858;52.308;20.994;2024-01-11T12:41:57;-1.00;99.90
17483;DHT22;8858;52.308;20.994;2024-01-11T12:44:26;-0.90;99.90
17483;DHT22;8858;52.308;20.994;2024-01-11T12:46:55;-0.90;99.90
17483;DHT22;8858;52.308;20.994;2024-01-11T12:49:23;-0.90;99.90
17483;DHT22;8858;52.308;20.994;2024-01-11T12:51:51;-0.90;99.90
17483;DHT22;8858;52.308;20.994;2024-01-11T12:54:20;-0.90;99.90
17483;DHT22;8858;52.308;20.994;2024-01-11T12:56:49;-0.90;99.90
17483;DHT22;8858;52.308;20.994;2024-01-11T12:59:19;-0.90;99.90
17483;DHT22;8858;52.308;20.994;2024-01-11T13:01:52;-0.90;99.90
17483;DHT22;8858;52.308;20.994;2024-01-11T13:04:26;-0.90;99.90
17483;DHT22;8858;52.308;20.994;2024-01-11T13:06:55;-0.80;99.90
17483;DHT22;8858;52.308;20.994;2024-01-11T13:09:24;-0.70;99.90
17483;DHT22;8858;52.308;20.994;2024-01-11T13:11:53;-0.80;99.90
17483;DHT22;8858;52.308;20.994;2024-01-11T13:14:21;-0.70;99.90
17483;DHT22;8858;52.308;20.994;2024-01-11T13:16:50;-0.70;99.90
17483;DHT22;8858;52.308;20.994;2024-01-11T13:19:20;-0.70;99.90
17483;DHT22;8858;52.308;20.994;2024-01-11T13:21:53;-0.70;99.90
17483;DHT22;8858;52.308;20.994;2024-01-11T13:24:22;-0.60;99.90
17483;DHT22;8858;52.308;20.994;2024-01-11T13:26:50;-0.60;99.90
17483;DHT22;8858;52.308;20.994;2024-01-11T13:29:20;-0.50;99.90
17483;DHT22;8858;52.308;20.994;2024-01-11T13:31:49;-0.50;99.90
17483;DHT22;8858;52.308;20.994;2024-01-11T13:34:18;-0.50;99.90
17483;DHT22;8858;52.308;20.994;2024-01-11T13:36:46;-0.50;99.90
17483;DHT22;8858;52.308;20.994;2024-01-11T13:39:14;-0.50;99.90
17483;DHT22;8858;52.308;20.994;2024-01-11T13:41:45;-0.40;99.90
17483;DHT22;8858;52.308;20.994;2024-01-11T13:44:16;-0.40;99.90
17483;DHT22;8858;52.308;20.994;2024-01-11T13:46:48;-0.40;99.90
17483;DHT22;8858;52.308;20.994;2024-01-11T13:49:16;-0.40;99.90
17483;DHT22;8858;52.308;20.994;2024-01-11T13:51:45;-0.40;99.90
17483;DHT22;8858;52.308;20.994;2024-01-11T13:54:26;-0.40;99.90
17483;DHT22;8858;52.308;20.994;2024-01-11T13:56:54;-0.30;99.90
17483;DHT22;8858;52.308;20.994;2024-01-11T13:59:22;-0.40;99.90
17483;DHT22;8858;52.308;20.994;2024-01-11T14:01:54;-0.30;99.90
17483;DHT22;8858;52.308;20.994;2024-01-11T14:04:23;-0.30;99.90
17483;DHT22;8858;52.308;20.994;2024-01-11T14:06:52;-0.30;99.90
17483;DHT22;8858;52.308;20.994;2024-01-11T14:09:20;-0.30;99.90
17483;DHT22;8858;52.308;20.994;2024-01-11T14:11:49;-0.30;99.90
17483;DHT22;8858;52.308;20.994;2024-01-11T14:14:23;-0.30;99.90
17483;DHT22;8858;52.308;20.994;2024-01-11T14:16:52;-0.30;99.90
17483;DHT22;8858;52.308;20.994;2024-01-11T14:19:21;-0.30;99.90
17483;DHT22;8858;52.308;20.994;2024-01-11T14:21:50;-0.20;99.90
17483;DHT22;8858;52.308;20.994;2024-01-11T14:24:18;-0.20;99.90
17483;DHT22;8858;52.308;20.994;2024-01-11T14:26:58;-0.20;99.90
17483;DHT22;8858;52.308;20.994;2024-01-11T14:29:26;-0.10;99.90
17483;DHT22;8858;52.308;20.994;2024-01-11T14:31:57;-0.10;99.90
17483;DHT22;8858;52.308;20.994;2024-01-11T14:34:27;-0.10;99.90
17483;DHT22;8858;52.308;20.994;2024-01-11T14:36:56;-0.10;99.90
17483;DHT22;8858;52.308;20.994;2024-01-11T14:39:25;-0.10;99.90
17483;DHT22;8858;52.308;20.994;2024-01-11T14:41:53;0.00;99.90
17483;DHT22;8858;52.308;20.994;2024-01-11T14:44:25;0.00;99.90
17483;DHT22;8858;52.308;20.994;2024-01-11T14:46:54;0.10;99.90
17483;DHT22;8858;52.308;20.994;2024-01-11T14:49:22;0.10;99.90
17483;DHT22;8858;52.308;20.994;2024-01-11T14:51:53;0.10;99.90
17483;DHT22;8858;52.308;20.994;2024-01-11T14:54:22;0.20;99.90
17483;DHT22;8858;52.308;20.994;2024-01-11T14:56:54;0.30;99.90
17483;DHT22;8858;52.308;20.994;2024-01-11T14:59:22;0.30;99.90
17483;DHT22;8858;52.308;20.994;2024-01-11T15:01:51;0.30;99.90
17483;DHT22;8858;52.308;20.994;2024-01-11T15:04:19;0.40;99.90
17483;DHT22;8858;52.308;20.994;2024-01-11T15:06:49;0.40;99.90
17483;DHT22;8858;52.308;20.994;2024-01-11T15:09:22;0.50;99.90
17483;DHT22;8858;52.308;20.994;2024-01-11T15:11:50;0.50;99.90
17483;DHT22;8858;52.308;20.994;2024-01-11T15:14:19;0.50;99.90
17483;DHT22;8858;52.308;20.994;2024-01-11T15:16:48;0.60;99.90
17483;DHT22;8858;52.308;20.994;2024-01-11T15:19:16;0.60;99.90
17483;DHT22;8858;52.308;20.994;2024-01-11T15:21:45;0.70;99.90
17483;DHT22;8858;52.308;20.994;2024-01-11T15:24:17;0.70;99.90
17483;DHT22;8858;52.308;20.994;2024-01-11T15:26:49;0.70;99.90
17483;DHT22;8858;52.308;20.994;2024-01-11T15:29:17;0.80;99.90
17483;DHT22;8858;52.308;20.994;2024-01-11T15:31:46;0.80;99.90
17483;DHT22;8858;52.308;20.994;2024-01-11T15:34:17;0.80;99.90
17483;DHT22;8858;52.308;20.994;2024-01-11T15:36:47;0.90;99.90
17483;DHT22;8858;52.308;20.994;2024-01-11T15:39:15;0.90;99.90
17483;DHT22;8858;52.308;20.994;2024-01-11T15:41:55;1.00;99.90
17483;DHT22;8858;52.308;20.994;2024-01-11T15:44:25;1.00;99.90
17483;DHT22;8858;52.308;20.994;2024-01-11T15:46:55;1.00;99.90
17483;DHT22;8858;52.308;20.994;2024-01-11T15:49:24;1.10;99.90